Time;durP1;ratioP1;P1;durP2;ratioP2;P2;SDS_P1;SDS_P2;PMS_P1;PMS_P2;Temp;Humidity;BMP_temperature;BMP_pressure;BME280_temperature;BME280_humidity;BME280_pressure;Samples;Min_cycle;Max_cycle;Signal;HPM_P1;HPM_P2
2024/04/01 00:02:16;;;;;;;6.75;4.20;;;;;;;;;;5037425;28;20025;-64
2024/04/01 00:04:42;;;;;;;6.85;4.00;;;;;;;;;;5032532;28;20025;-64
2024/04/01 00:07:08;;;;;;;9.57;4.05;;;;;;;;;;5036014;28;20053;-64
2024/04/01 00:09:34;;;;;;;6.03;4.10;;;;;;;;;;5033582;28;20193;-64
2024/04/01 00:12:00;;;;;;;5.32;3.75;;;;;;;;;;5036605;28;20599;-63
2024/04/01 00:14:26;;;;;;;9.15;4.25;;;;;;;;;;5037366;28;20024;-64
2024/04/01 00:16:52;;;;;;;8.32;4.28;;;;;;;;;;5040088;28;20030;-63
2024/04/01 00:19:19;;;;;;;4.03;3.60;;;;;;;;;;5031499;28;20386;-64
2024/04/01 00:21:45;;;;;;;4.78;3.67;;;;;;;;;;5035600;28;20108;-63
2024/04/01 00:24:11;;;;;;;8.68;3.65;;;;;;;;;;5039209;28;20041;-64
2024/04/01 00:26:37;;;;;;;8.85;3.58;;;;;;;;;;5032698;28;20523;-64
2024/04/01 00:29:03;;;;;;;6.75;3.97;;;;;;;;;;5037775;28;20025;-63
2024/04/01 00:31:29;;;;;;;6.13;3.45;;;;;;;;;;5029435;28;20476;-62
2024/04/01 00:33:56;;;;;;;7.05;3.33;;;;;;;;;;5034499;28;20506;-63
2024/04/01 00:36:22;;;;;;;7.07;4.20;;;;;;;;;;5039401;28;20033;-63
2024/04/01 00:38:55;;;;;;;5.07;3.70;;;;;;;;;;5045708;28;20045;-66
2024/04/01 00:41:22;;;;;;;8.45;3.17;;;;;;;;;;5040777;28;20032;-64
2024/04/01 00:43:48;;;;;;;6.18;3.53;;;;;;;;;;5042148;28;20099;-63
2024/04/01 00:46:16;;;;;;;11.68;3.60;;;;;;;;;;5040004;28;20071;-63
2024/04/01 00:48:42;;;;;;;6.35;3.75;;;;;;;;;;5037278;28;20055;-64
2024/04/01 00:51:09;;;;;;;9.63;3.92;;;;;;;;;;5040732;28;20033;-63
2024/04/01 00:53:35;;;;;;;4.38;3.13;;;;;;;;;;5042931;28;20028;-64
2024/04/01 00:56:02;;;;;;;4.80;3.33;;;;;;;;;;5033201;28;20033;-63
2024/04/01 00:58:29;;;;;;;5.53;3.42;;;;;;;;;;5037311;28;20040;-64
2024/04/01 01:00:56;;;;;;;5.47;2.95;;;;;;;;;;5040644;28;20512;-64
2024/04/01 01:03:22;;;;;;;7.45;3.63;;;;;;;;;;5039737;28;20067;-63
2024/04/01 01:05:48;;;;;;;4.55;2.70;;;;;;;;;;5037605;28;20068;-66
2024/04/01 01:08:15;;;;;;;6.40;3.30;;;;;;;;;;5040861;28;20035;-67
2024/04/01 01:10:41;;;;;;;10.10;3.35;;;;;;;;;;5038929;28;20456;-66
2024/04/01 01:13:07;;;;;;;5.68;3.83;;;;;;;;;;5039041;28;20126;-67
2024/04/01 01:15:34;;;;;;;4.50;3.40;;;;;;;;;;5039792;28;20067;-67
2024/04/01 01:18:00;;;;;;;4.05;3.13;;;;;;;;;;5038639;28;20029;-64
2024/04/01 01:20:26;;;;;;;5.35;2.92;;;;;;;;;;5036105;28;20393;-63
2024/04/01 01:22:52;;;;;;;6.47;3.53;;;;;;;;;;5037201;28;20477;-63
2024/04/01 01:25:19;;;;;;;7.10;4.13;;;;;;;;;;5037772;28;20030;-64
2024/04/01 01:27:45;;;;;;;5.00;3.13;;;;;;;;;;5036338;28;20039;-63
2024/04/01 01:30:15;;;;;;;5.45;3.38;;;;;;;;;;5043134;28;20030;-64
2024/04/01 01:32:51;;;;;;;5.35;3.58;;;;;;;;;;5033730;28;20033;-63
2024/04/01 01:35:24;;;;;;;6.60;2.97;;;;;;;;;;5035095;28;20022;-63
2024/04/01 01:37:51;;;;;;;5.65;2.78;;;;;;;;;;5037657;28;20029;-63
2024/04/01 01:40:17;;;;;;;6.10;3.15;;;;;;;;;;5040535;28;20036;-63
2024/04/01 01:42:44;;;;;;;6.38;5.03;;;;;;;;;;5035652;28;20127;-63
2024/04/01 01:45:10;;;;;;;8.57;3.53;;;;;;;;;;5038926;28;20519;-63
2024/04/01 01:47:36;;;;;;;5.25;3.72;;;;;;;;;;5036121;28;20025;-63
2024/04/01 01:50:03;;;;;;;3.53;2.95;;;;;;;;;;5037324;28;20025;-63
2024/04/01 01:52:29;;;;;;;9.40;3.80;;;;;;;;;;5040858;28;20167;-63
2024/04/01 01:54:55;;;;;;;10.52;3.55;;;;;;;;;;5035676;28;20945;-63
2024/04/01 01:57:22;;;;;;;6.13;3.30;;;;;;;;;;5034473;28;20029;-63
2024/04/01 01:59:48;;;;;;;6.55;4.00;;;;;;;;;;5033050;28;20397;-63
2024/04/01 02:02:15;;;;;;;4.82;3.38;;;;;;;;;;5029667;28;20439;-63
2024/04/01 02:04:41;;;;;;;9.40;3.55;;;;;;;;;;5037561;28;20136;-63
2024/04/01 02:07:07;;;;;;;9.68;4.35;;;;;;;;;;5035253;28;20416;-63
2024/04/01 02:09:34;;;;;;;11.32;4.15;;;;;;;;;;5039805;28;20482;-63
2024/04/01 02:12:00;;;;;;;6.50;3.92;;;;;;;;;;5036088;28;20500;-63
2024/04/01 02:14:27;;;;;;;19.98;3.95;;;;;;;;;;5037520;28;20032;-64
2024/04/01 02:16:53;;;;;;;5.55;3.55;;;;;;;;;;5032535;28;20533;-64
2024/04/01 02:19:19;;;;;;;13.80;3.88;;;;;;;;;;5033870;28;20120;-63
2024/04/01 02:21:48;;;;;;;6.05;3.53;;;;;;;;;;5030222;28;20117;-64
2024/04/01 02:24:17;;;;;;;8.68;4.10;;;;;;;;;;5036894;28;20029;-63
2024/04/01 02:26:49;;;;;;;5.32;3.03;;;;;;;;;;5033246;28;20060;-63
2024/04/01 02:29:16;;;;;;;7.20;3.20;;;;;;;;;;5030404;28;20033;-63
2024/04/01 02:31:42;;;;;;;5.07;3.75;;;;;;;;;;5039252;28;20108;-64
2024/04/01 02:34:08;;;;;;;10.52;3.92;;;;;;;;;;5034662;28;20507;-65
2024/04/01 02:36:36;;;;;;;5.72;3.05;;;;;;;;;;5044573;28;20086;-64
2024/04/01 02:39:02;;;;;;;7.30;3.85;;;;;;;;;;5037206;28;20037;-64
2024/04/01 02:41:29;;;;;;;4.32;3.40;;;;;;;;;;5039264;28;20037;-66
2024/04/01 02:43:55;;;;;;;6.38;3.30;;;;;;;;;;5032743;28;20339;-67
2024/04/01 02:46:21;;;;;;;7.55;3.42;;;;;;;;;;5033278;28;20029;-66
2024/04/01 02:48:47;;;;;;;5.38;3.90;;;;;;;;;;5037365;28;20033;-66
2024/04/01 02:51:14;;;;;;;6.35;3.38;;;;;;;;;;5036758;28;20018;-66
2024/04/01 02:53:47;;;;;;;4.50;3.65;;;;;;;;;;5038328;28;20018;-67
2024/04/01 02:56:14;;;;;;;7.35;3.42;;;;;;;;;;5038974;28;20017;-66
2024/04/01 02:58:43;;;;;;;4.97;3.17;;;;;;;;;;5034215;28;20531;-67
2024/04/01 03:01:10;;;;;;;6.57;3.55;;;;;;;;;;5041033;28;20036;-66
2024/04/01 03:03:36;;;;;;;5.07;3.42;;;;;;;;;;5054806;28;20576;-65
2024/04/01 03:06:03;;;;;;;5.55;3.30;;;;;;;;;;5030989;28;20476;-66
2024/04/01 03:08:29;;;;;;;4.47;3.45;;;;;;;;;;5038190;28;20441;-66
2024/04/01 03:11:02;;;;;;;8.07;3.50;;;;;;;;;;5039050;28;20076;-66
2024/04/01 03:13:28;;;;;;;10.20;3.08;;;;;;;;;;5028205;28;20021;-66
2024/04/01 03:15:55;;;;;;;3.92;3.20;;;;;;;;;;5036703;28;20044;-67
2024/04/01 03:18:22;;;;;;;4.28;2.88;;;;;;;;;;5038394;28;20444;-66
2024/04/01 03:20:48;;;;;;;6.53;3.72;;;;;;;;;;5037383;28;20420;-66
2024/04/01 03:23:14;;;;;;;2.90;2.45;;;;;;;;;;5035788;28;20022;-65
2024/04/01 03:25:41;;;;;;;7.43;2.20;;;;;;;;;;5036577;28;20094;-65
2024/04/01 03:28:12;;;;;;;3.97;2.60;;;;;;;;;;5041273;28;20138;-65
2024/04/01 03:30:39;;;;;;;2.80;2.25;;;;;;;;;;5053480;28;20021;-66
2024/04/01 03:33:06;;;;;;;6.03;2.63;;;;;;;;;;5036263;28;20485;-67
2024/04/01 03:35:33;;;;;;;3.85;2.85;;;;;;;;;;5042557;28;20075;-66
2024/04/01 03:38:00;;;;;;;4.03;2.72;;;;;;;;;;5037841;28;20037;-67
2024/04/01 03:40:26;;;;;;;4.60;2.45;;;;;;;;;;5033393;28;20438;-67
2024/04/01 03:42:53;;;;;;;2.92;2.40;;;;;;;;;;5035301;28;20038;-66
2024/04/01 03:45:20;;;;;;;8.00;2.55;;;;;;;;;;5040387;28;20088;-67
2024/04/01 03:47:46;;;;;;;3.15;2.45;;;;;;;;;;5032270;28;20037;-66
2024/04/01 03:50:12;;;;;;;6.85;2.45;;;;;;;;;;5030121;28;20037;-65
2024/04/01 03:52:38;;;;;;;5.95;2.80;;;;;;;;;;5035649;28;20438;-66
2024/04/01 03:55:05;;;;;;;9.60;3.17;;;;;;;;;;5036355;28;20024;-67
2024/04/01 03:57:31;;;;;;;3.38;2.95;;;;;;;;;;5038236;28;20025;-67
2024/04/01 03:59:58;;;;;;;5.70;2.78;;;;;;;;;;5037064;28;20051;-66
2024/04/01 04:02:24;;;;;;;3.00;2.20;;;;;;;;;;5030490;28;20030;-67
2024/04/01 04:04:50;;;;;;;3.35;2.55;;;;;;;;;;5035816;28;20072;-66
2024/04/01 04:07:16;;;;;;;2.72;2.50;;;;;;;;;;5036138;28;20032;-66
2024/04/01 04:09:42;;;;;;;6.40;2.40;;;;;;;;;;5040305;28;20124;-66
2024/04/01 04:12:10;;;;;;;4.95;3.05;;;;;;;;;;5032018;28;20029;-68
2024/04/01 04:14:37;;;;;;;2.88;2.60;;;;;;;;;;5037349;28;20036;-66
2024/04/01 04:17:03;;;;;;;10.32;2.95;;;;;;;;;;5031037;28;20071;-66
2024/04/01 04:19:29;;;;;;;2.60;2.40;;;;;;;;;;5040800;28;20061;-66
2024/04/01 04:21:56;;;;;;;5.47;2.40;;;;;;;;;;5031058;28;20121;-66
2024/04/01 04:24:24;;;;;;;6.75;2.60;;;;;;;;;;5039115;28;20100;-66
2024/04/01 04:26:51;;;;;;;2.13;1.90;;;;;;;;;;5038035;28;20412;-66
2024/04/01 04:29:17;;;;;;;2.80;2.17;;;;;;;;;;5038699;28;20025;-67
2024/04/01 04:31:56;;;;;;;2.30;2.10;;;;;;;;;;5033333;28;20053;-66
2024/04/01 04:34:22;;;;;;;3.75;2.15;;;;;;;;;;5029912;28;20028;-66
2024/04/01 04:36:48;;;;;;;3.60;2.08;;;;;;;;;;5029577;28;20493;-66
2024/04/01 04:39:24;;;;;;;3.00;2.20;;;;;;;;;;5035398;28;20151;-67
2024/04/01 04:41:50;;;;;;;4.57;2.05;;;;;;;;;;5032718;28;20040;-66
2024/04/01 04:44:17;;;;;;;2.92;1.80;;;;;;;;;;5035669;28;20914;-66
2024/04/01 04:46:43;;;;;;;9.40;2.28;;;;;;;;;;5038901;28;20025;-66
2024/04/01 04:49:09;;;;;;;4.78;2.33;;;;;;;;;;5036600;28;20745;-67
2024/04/01 04:51:35;;;;;;;2.22;1.92;;;;;;;;;;5033903;28;20021;-66
2024/04/01 04:54:01;;;;;;;2.60;1.98;;;;;;;;;;5034457;28;20422;-66
2024/04/01 04:56:27;;;;;;;2.08;1.98;;;;;;;;;;5033478;28;20036;-66
2024/04/01 04:58:54;;;;;;;2.83;2.25;;;;;;;;;;5038412;28;20043;-66
2024/04/01 05:01:20;;;;;;;5.15;2.67;;;;;;;;;;5040176;28;20040;-66
2024/04/01 05:03:47;;;;;;;3.45;2.47;;;;;;;;;;5034867;28;20045;-66
2024/04/01 05:06:14;;;;;;;5.72;2.35;;;;;;;;;;5030803;28;20068;-67
2024/04/01 05:08:40;;;;;;;2.28;2.03;;;;;;;;;;5030471;28;20440;-67
2024/04/01 05:11:09;;;;;;;5.57;2.00;;;;;;;;;;5036096;28;20025;-67
2024/04/01 05:13:35;;;;;;;6.63;2.30;;;;;;;;;;5033556;28;20025;-67
2024/04/01 05:16:03;;;;;;;4.60;2.58;;;;;;;;;;5037984;28;20060;-66
2024/04/01 05:18:29;;;;;;;6.30;2.72;;;;;;;;;;5034273;28;20034;-66
2024/04/01 05:20:57;;;;;;;5.53;2.35;;;;;;;;;;5036034;28;20485;-68
2024/04/01 05:23:23;;;;;;;3.22;2.22;;;;;;;;;;5040787;28;20017;-66
2024/04/01 05:25:49;;;;;;;4.10;1.77;;;;;;;;;;5047255;28;20548;-67
2024/04/01 05:28:16;;;;;;;3.35;2.15;;;;;;;;;;5040166;28;20033;-66
2024/04/01 05:30:43;;;;;;;12.85;2.65;;;;;;;;;;5038218;28;20374;-66
2024/04/01 05:33:09;;;;;;;7.65;2.55;;;;;;;;;;5037142;28;20152;-66
2024/04/01 05:35:37;;;;;;;5.95;2.65;;;;;;;;;;5040472;28;20029;-67
2024/04/01 05:38:07;;;;;;;2.45;2.22;;;;;;;;;;5039250;28;20494;-67
2024/04/01 05:40:33;;;;;;;4.70;2.05;;;;;;;;;;5036819;28;20044;-66
2024/04/01 05:42:59;;;;;;;5.22;1.90;;;;;;;;;;5037526;28;20120;-66
2024/04/01 05:45:25;;;;;;;4.78;2.65;;;;;;;;;;5037815;28;20024;-66
2024/04/01 05:47:52;;;;;;;5.22;2.25;;;;;;;;;;5035144;28;20052;-66
2024/04/01 05:50:18;;;;;;;3.40;2.38;;;;;;;;;;5041679;28;20378;-66
2024/04/01 05:52:45;;;;;;;3.08;2.42;;;;;;;;;;5035665;28;20094;-67
2024/04/01 05:55:14;;;;;;;6.55;2.65;;;;;;;;;;5032806;28;20032;-67
2024/04/01 05:57:40;;;;;;;3.97;2.45;;;;;;;;;;5039414;28;20389;-67
2024/04/01 06:00:10;;;;;;;2.45;2.25;;;;;;;;;;5037016;28;20436;-66
2024/04/01 06:02:37;;;;;;;8.00;2.97;;;;;;;;;;5040866;28;20060;-67
2024/04/01 06:05:04;;;;;;;2.70;2.35;;;;;;;;;;5039870;28;20060;-65
2024/04/01 06:07:30;;;;;;;3.35;2.40;;;;;;;;;;5041994;28;20127;-62
2024/04/01 06:09:58;;;;;;;9.43;3.00;;;;;;;;;;5034995;28;20047;-62
2024/04/01 06:12:24;;;;;;;3.13;2.83;;;;;;;;;;5047097;28;20151;-62
2024/04/01 06:14:51;;;;;;;6.22;2.75;;;;;;;;;;5039028;28;20775;-62
2024/04/01 06:17:17;;;;;;;2.72;2.00;;;;;;;;;;5037925;28;20060;-62
2024/04/01 06:19:43;;;;;;;5.72;2.10;;;;;;;;;;5038720;28;20036;-62
2024/04/01 06:22:10;;;;;;;6.80;2.53;;;;;;;;;;5030185;28;20026;-62
2024/04/01 06:24:37;;;;;;;5.07;2.42;;;;;;;;;;5034585;28;20048;-63
2024/04/01 06:27:03;;;;;;;3.15;2.25;;;;;;;;;;5034116;28;20461;-66
2024/04/01 06:29:29;;;;;;;5.80;2.80;;;;;;;;;;5039683;28;20071;-65
2024/04/01 06:31:56;;;;;;;7.95;2.45;;;;;;;;;;5034262;28;20033;-65
2024/04/01 06:34:22;;;;;;;4.20;2.42;;;;;;;;;;5037052;28;20025;-66
2024/04/01 06:36:51;;;;;;;5.30;3.35;;;;;;;;;;5039957;28;20041;-65
2024/04/01 06:39:17;;;;;;;6.07;2.83;;;;;;;;;;5033696;28;20112;-65
2024/04/01 06:41:46;;;;;;;13.02;2.65;;;;;;;;;;5035901;28;20038;-67
2024/04/01 06:44:13;;;;;;;3.60;2.30;;;;;;;;;;5034608;28;20108;-65
2024/04/01 06:46:39;;;;;;;3.05;2.40;;;;;;;;;;5043595;28;20040;-65
2024/04/01 06:49:05;;;;;;;5.47;3.28;;;;;;;;;;5035770;28;20365;-65
2024/04/01 06:51:31;;;;;;;3.42;2.10;;;;;;;;;;5032376;28;20061;-64
2024/04/01 06:53:58;;;;;;;3.38;2.47;;;;;;;;;;5037617;28;20086;-65
2024/04/01 06:56:24;;;;;;;5.88;2.55;;;;;;;;;;5036319;28;20104;-66
2024/04/01 06:58:50;;;;;;;2.53;2.33;;;;;;;;;;5035557;28;20432;-65
2024/04/01 07:01:16;;;;;;;4.38;2.75;;;;;;;;;;5038223;28;20036;-66
2024/04/01 07:03:42;;;;;;;3.30;2.17;;;;;;;;;;5034163;28;20107;-66
2024/04/01 07:06:08;;;;;;;6.10;2.58;;;;;;;;;;5044444;28;20447;-65
2024/04/01 07:08:35;;;;;;;5.88;2.30;;;;;;;;;;5032686;28;20087;-65
2024/04/01 07:11:01;;;;;;;2.00;1.90;;;;;;;;;;5036723;28;20095;-70
2024/04/01 07:13:27;;;;;;;5.80;2.17;;;;;;;;;;5034795;28;20092;-65
2024/04/01 07:15:53;;;;;;;2.53;1.98;;;;;;;;;;5038838;28;20710;-66
2024/04/01 07:18:20;;;;;;;5.22;2.10;;;;;;;;;;5039546;28;20033;-70
2024/04/01 07:20:46;;;;;;;4.85;2.08;;;;;;;;;;5036802;28;20033;-65
2024/04/01 07:23:12;;;;;;;4.57;2.40;;;;;;;;;;5042807;28;20029;-67
2024/04/01 07:25:38;;;;;;;1.77;1.67;;;;;;;;;;5032178;28;20040;-69
2024/04/01 07:28:04;;;;;;;4.28;2.00;;;;;;;;;;5038298;28;20037;-65
2024/04/01 07:30:31;;;;;;;12.77;2.47;;;;;;;;;;5032013;28;20463;-66
2024/04/01 07:32:57;;;;;;;3.15;2.22;;;;;;;;;;5036577;28;20116;-67
2024/04/01 07:35:24;;;;;;;6.72;2.28;;;;;;;;;;5031209;28;20051;-66
2024/04/01 07:37:50;;;;;;;2.45;2.20;;;;;;;;;;5037645;28;20116;-65
2024/04/01 07:40:16;;;;;;;5.60;2.00;;;;;;;;;;5030349;28;20028;-69
2024/04/01 07:42:45;;;;;;;3.05;2.20;;;;;;;;;;5037812;28;20032;-66
2024/04/01 07:45:13;;;;;;;1.95;1.85;;;;;;;;;;5034821;28;20021;-65
2024/04/01 07:47:49;;;;;;;3.90;2.30;;;;;;;;;;5031219;28;20037;-64
2024/04/01 07:50:19;;;;;;;7.18;2.38;;;;;;;;;;5034772;28;20096;-68
2024/04/01 07:52:49;;;;;;;2.80;2.33;;;;;;;;;;5041521;28;20102;-70
2024/04/01 07:55:16;;;;;;;2.10;1.88;;;;;;;;;;5026171;28;20109;-70
2024/04/01 07:57:42;;;;;;;4.78;1.80;;;;;;;;;;5030977;28;20021;-70
2024/04/01 08:00:08;;;;;;;7.05;2.25;;;;;;;;;;5031041;28;20325;-68
2024/04/01 08:02:34;;;;;;;2.35;2.05;;;;;;;;;;5026804;28;20017;-67
2024/04/01 08:05:00;;;;;;;2.90;2.03;;;;;;;;;;5031881;28;20029;-67
2024/04/01 08:07:27;;;;;;;2.55;1.88;;;;;;;;;;5030914;28;20029;-66
2024/04/01 08:09:53;;;;;;;11.68;2.33;;;;;;;;;;5029764;28;20040;-67
2024/04/01 08:12:19;;;;;;;4.13;2.10;;;;;;;;;;5032880;28;20025;-67
2024/04/01 08:14:45;;;;;;;4.97;2.03;;;;;;;;;;5027708;28;20025;-67
2024/04/01 08:17:11;;;;;;;6.43;2.00;;;;;;;;;;5035866;28;20305;-66
2024/04/01 08:19:37;;;;;;;9.25;2.88;;;;;;;;;;5032966;28;20071;-68
2024/04/01 08:22:04;;;;;;;4.78;2.13;;;;;;;;;;5031646;28;20029;-67
2024/04/01 08:24:30;;;;;;;1.90;1.80;;;;;;;;;;5034142;28;20529;-65
2024/04/01 08:26:56;;;;;;;5.60;2.15;;;;;;;;;;5026797;28;20389;-65
2024/04/01 08:29:22;;;;;;;2.35;2.15;;;;;;;;;;5031861;28;20064;-64
2024/04/01 08:31:48;;;;;;;4.38;2.50;;;;;;;;;;5029459;28;20026;-65
2024/04/01 08:34:14;;;;;;;4.10;2.00;;;;;;;;;;5031287;28;20017;-71
2024/04/01 08:36:41;;;;;;;2.97;2.22;;;;;;;;;;5048766;28;20119;-63
2024/04/01 08:39:10;;;;;;;2.95;1.98;;;;;;;;;;5033411;28;20236;-67
2024/04/01 08:41:41;;;;;;;7.57;2.22;;;;;;;;;;5031383;28;20029;-65
2024/04/01 08:44:25;;;;;;;10.23;2.15;;;;;;;;;;5033023;28;20025;-64
2024/04/01 08:46:53;;;;;;;2.10;1.90;;;;;;;;;;5035477;28;20033;-65
2024/04/01 08:49:35;;;;;;;3.42;2.20;;;;;;;;;;5030126;28;20572;-65
2024/04/01 08:52:04;;;;;;;5.05;1.90;;;;;;;;;;5030427;28;20237;-65
2024/04/01 08:54:30;;;;;;;3.20;2.10;;;;;;;;;;5029060;28;20148;-64
2024/04/01 08:56:57;;;;;;;2.75;2.20;;;;;;;;;;5033209;28;20021;-66
2024/04/01 08:59:24;;;;;;;2.20;2.00;;;;;;;;;;5038737;28;20052;-70
2024/04/01 09:01:51;;;;;;;5.00;2.13;;;;;;;;;;5033208;28;20043;-67
2024/04/01 09:04:17;;;;;;;1.80;1.70;;;;;;;;;;5024892;28;20620;-68
2024/04/01 09:06:44;;;;;;;4.35;2.05;;;;;;;;;;5033070;28;20037;-68
2024/04/01 09:09:11;;;;;;;2.50;2.30;;;;;;;;;;5054005;28;20116;-67
2024/04/01 09:11:38;;;;;;;4.10;2.38;;;;;;;;;;5031155;28;20021;-69
2024/04/01 09:14:07;;;;;;;3.67;2.03;;;;;;;;;;5032537;28;20021;-68
2024/04/01 09:16:33;;;;;;;14.25;2.17;;;;;;;;;;5038580;28;20137;-67
2024/04/01 09:19:09;;;;;;;7.57;2.47;;;;;;;;;;5031282;28;20029;-67
2024/04/01 09:21:38;;;;;;;2.72;2.47;;;;;;;;;;5041234;28;20025;-69
2024/04/01 09:24:05;;;;;;;2.85;1.90;;;;;;;;;;5044458;28;20123;-69
2024/04/01 09:26:32;;;;;;;3.90;2.20;;;;;;;;;;5042593;28;20029;-65
2024/04/01 09:29:02;;;;;;;10.98;3.10;;;;;;;;;;5057556;28;20043;-65
2024/04/01 09:31:28;;;;;;;2.38;2.00;;;;;;;;;;5030919;28;20121;-66
2024/04/01 09:33:55;;;;;;;4.30;2.45;;;;;;;;;;5035003;28;20513;-64
2024/04/01 09:36:22;;;;;;;5.20;2.13;;;;;;;;;;5036751;28;20022;-67
2024/04/01 09:38:51;;;;;;;5.93;2.40;;;;;;;;;;5036037;28;20033;-70
2024/04/01 09:41:18;;;;;;;2.08;1.90;;;;;;;;;;5034306;28;20761;-68
2024/04/01 09:43:44;;;;;;;6.65;2.42;;;;;;;;;;5033006;28;20645;-68
2024/04/01 09:46:11;;;;;;;3.15;2.72;;;;;;;;;;5037609;28;20045;-66
2024/04/01 09:48:37;;;;;;;2.55;2.20;;;;;;;;;;5038217;28;20025;-66
2024/04/01 09:51:05;;;;;;;3.70;2.45;;;;;;;;;;5030627;28;20029;-68
2024/04/01 09:53:31;;;;;;;6.85;2.80;;;;;;;;;;5033482;28;20032;-67
2024/04/01 09:56:00;;;;;;;9.27;2.55;;;;;;;;;;5041005;28;20063;-67
2024/04/01 09:58:35;;;;;;;3.40;2.47;;;;;;;;;;5035444;28;20026;-67
2024/04/01 10:01:11;;;;;;;2.95;2.50;;;;;;;;;;5053427;28;20492;-66
2024/04/01 10:03:56;;;;;;;3.65;2.28;;;;;;;;;;5033761;28;20493;-67
2024/04/01 10:06:38;;;;;;;2.72;2.53;;;;;;;;;;5034139;28;20033;-67
2024/04/01 10:09:22;;;;;;;4.53;2.53;;;;;;;;;;5036778;28;20031;-68
2024/04/01 10:12:02;;;;;;;5.47;2.40;;;;;;;;;;5032573;28;20108;-67
2024/04/01 10:14:46;;;;;;;11.93;2.85;;;;;;;;;;5050068;28;20067;-65
2024/04/01 10:17:13;;;;;;;5.78;2.33;;;;;;;;;;5029869;28;20490;-65
2024/04/01 10:19:48;;;;;;;2.60;2.38;;;;;;;;;;5030200;28;20028;-67
2024/04/01 10:22:14;;;;;;;3.42;2.17;;;;;;;;;;5035346;28;20068;-68
2024/04/01 10:24:52;;;;;;;14.60;2.42;;;;;;;;;;5032777;28;20086;-68
2024/04/01 10:27:37;;;;;;;4.82;2.42;;;;;;;;;;5033556;28;20033;-67
2024/04/01 10:30:09;;;;;;;3.50;2.50;;;;;;;;;;5034991;28;20337;-67
2024/04/01 10:32:51;;;;;;;3.00;2.70;;;;;;;;;;5030965;28;20366;-67
2024/04/01 10:35:29;;;;;;;9.52;2.40;;;;;;;;;;5031182;28;20413;-67
2024/04/01 10:38:15;;;;;;;6.68;2.60;;;;;;;;;;5031192;28;20025;-66
2024/04/01 10:40:57;;;;;;;5.55;3.35;;;;;;;;;;5031419;28;20025;-67
2024/04/01 10:43:23;;;;;;;3.60;3.05;;;;;;;;;;5031277;28;20026;-68
2024/04/01 10:45:49;;;;;;;3.42;2.97;;;;;;;;;;5039232;28;20047;-67
2024/04/01 10:48:19;;;;;;;3.80;3.45;;;;;;;;;;5030199;28;20048;-68
2024/04/01 10:50:58;;;;;;;4.57;3.38;;;;;;;;;;5032993;28;20029;-67
2024/04/01 10:53:27;;;;;;;7.45;4.45;;;;;;;;;;5031512;28;20543;-66
2024/04/01 10:56:13;;;;;;;3.00;2.50;;;;;;;;;;5031507;28;20509;-66
2024/04/01 10:58:46;;;;;;;5.45;2.78;;;;;;;;;;5030147;28;20017;-67
2024/04/01 11:01:25;;;;;;;6.00;3.55;;;;;;;;;;5031067;28;20164;-68
2024/04/01 11:04:10;;;;;;;3.75;3.22;;;;;;;;;;5019663;28;20393;-65
2024/04/01 11:06:39;;;;;;;3.28;2.85;;;;;;;;;;5036066;28;20029;-65
2024/04/01 11:09:08;;;;;;;2.50;2.30;;;;;;;;;;5032464;28;20037;-67
2024/04/01 11:11:41;;;;;;;2.90;2.60;;;;;;;;;;5033463;28;20115;-67
2024/04/01 11:14:10;;;;;;;4.75;3.05;;;;;;;;;;5029407;28;20064;-66
2024/04/01 11:16:39;;;;;;;4.15;3.38;;;;;;;;;;5044217;28;20063;-66
2024/04/01 11:19:25;;;;;;;4.53;3.70;;;;;;;;;;5042947;28;20022;-66
2024/04/01 11:21:52;;;;;;;4.15;3.00;;;;;;;;;;5038433;28;20037;-67
2024/04/01 11:24:27;;;;;;;10.50;3.15;;;;;;;;;;5036182;28;20690;-67
2024/04/01 11:27:04;;;;;;;7.93;3.10;;;;;;;;;;5037907;28;20432;-65
2024/04/01 11:29:49;;;;;;;4.35;2.40;;;;;;;;;;5045928;28;20096;-65
2024/04/01 11:32:21;;;;;;;4.15;3.45;;;;;;;;;;5041888;28;20021;-67
2024/04/01 11:34:54;;;;;;;6.20;3.03;;;;;;;;;;5038098;28;20036;-67
2024/04/01 11:37:26;;;;;;;7.65;3.28;;;;;;;;;;5036648;28;20040;-67
2024/04/01 11:39:57;;;;;;;2.90;2.60;;;;;;;;;;5036847;28;20097;-66
2024/04/01 11:42:26;;;;;;;5.70;3.15;;;;;;;;;;5035014;28;20029;-64
2024/04/01 11:44:53;;;;;;;3.83;2.88;;;;;;;;;;5030352;28;20088;-65
2024/04/01 11:47:19;;;;;;;7.13;2.70;;;;;;;;;;5034215;28;20033;-67
2024/04/01 11:49:46;;;;;;;4.25;2.42;;;;;;;;;;5038751;28;20052;-67
2024/04/01 11:52:16;;;;;;;4.47;2.38;;;;;;;;;;5034862;28;20056;-66
2024/04/01 11:54:42;;;;;;;8.60;3.20;;;;;;;;;;5037175;28;20508;-66
2024/04/01 11:57:10;;;;;;;6.07;2.60;;;;;;;;;;5037952;28;20361;-66
2024/04/01 11:59:37;;;;;;;3.95;2.42;;;;;;;;;;5035871;28;20029;-66
2024/04/01 12:02:23;;;;;;;5.40;2.60;;;;;;;;;;5038521;28;20067;-69
2024/04/01 12:04:58;;;;;;;6.45;3.65;;;;;;;;;;5034631;28;20130;-67
2024/04/01 12:07:26;;;;;;;4.22;3.13;;;;;;;;;;5051600;28;20041;-67
2024/04/01 12:09:53;;;;;;;4.82;2.55;;;;;;;;;;5047018;28;20036;-67
2024/04/01 12:12:21;;;;;;;4.68;2.65;;;;;;;;;;5036247;28;20029;-69
2024/04/01 12:14:47;;;;;;;2.83;2.58;;;;;;;;;;5036415;28;20048;-67
2024/04/01 12:17:13;;;;;;;3.25;2.20;;;;;;;;;;5037624;28;20143;-67
2024/04/01 12:19:39;;;;;;;2.47;2.28;;;;;;;;;;5034847;28;20072;-67
2024/04/01 12:22:06;;;;;;;3.90;2.75;;;;;;;;;;5035587;28;20123;-65
2024/04/01 12:24:33;;;;;;;2.63;2.42;;;;;;;;;;5036651;28;20059;-65
2024/04/01 12:27:03;;;;;;;4.20;2.88;;;;;;;;;;5035065;28;20362;-67
2024/04/01 12:29:32;;;;;;;4.53;2.63;;;;;;;;;;5035551;28;20017;-65
2024/04/01 12:31:59;;;;;;;3.83;2.38;;;;;;;;;;5042508;28;20493;-65
2024/04/01 12:34:26;;;;;;;6.25;2.58;;;;;;;;;;5039417;28;20025;-65
2024/04/01 12:36:53;;;;;;;2.97;2.38;;;;;;;;;;5054074;28;20114;-64
2024/04/01 12:39:19;;;;;;;2.97;2.67;;;;;;;;;;5039901;28;20507;-66
2024/04/01 12:41:45;;;;;;;6.38;2.63;;;;;;;;;;5036432;28;20083;-64
2024/04/01 12:44:15;;;;;;;4.78;2.50;;;;;;;;;;5038409;28;20037;-65
2024/04/01 12:46:43;;;;;;;4.30;2.90;;;;;;;;;;5040389;28;20060;-64
2024/04/01 12:49:16;;;;;;;4.45;2.53;;;;;;;;;;5038118;28;20033;-64
2024/04/01 12:51:44;;;;;;;3.97;3.67;;;;;;;;;;5039928;28;20378;-65
2024/04/01 12:54:28;;;;;;;3.60;2.63;;;;;;;;;;5038178;28;20481;-65
2024/04/01 12:57:15;;;;;;;6.00;2.67;;;;;;;;;;5038115;28;20512;-64
2024/04/01 12:59:44;;;;;;;2.88;2.53;;;;;;;;;;5032936;28;20037;-65
2024/04/01 13:02:28;;;;;;;5.05;2.97;;;;;;;;;;5037060;28;20049;-64
2024/04/01 13:05:24;;;;;;;4.90;2.42;;;;;;;;;;5038761;28;20026;-65
2024/04/01 13:08:29;;;;;;;4.97;2.33;;;;;;;;;;5036205;28;20025;-65
2024/04/01 13:11:25;;;;;;;2.83;2.15;;;;;;;;;;4976722;28;20094;-70
2024/04/01 13:13:57;;;;;;;8.05;2.40;;;;;;;;;;4960876;28;20856;-64
2024/04/01 13:16:48;;;;;;;2.28;2.08;;;;;;;;;;5025293;28;20087;-64
2024/04/01 13:19:25;;;;;;;4.57;3.20;;;;;;;;;;5031599;28;20036;-64
2024/04/01 13:22:03;;;;;;;4.45;2.60;;;;;;;;;;5031054;28;20094;-64
2024/04/01 13:24:35;;;;;;;3.25;2.30;;;;;;;;;;5036822;28;20354;-63
2024/04/01 13:27:20;;;;;;;3.08;2.63;;;;;;;;;;5036881;28;20029;-64
2024/04/01 13:30:02;;;;;;;3.03;2.42;;;;;;;;;;5050629;28;20075;-64
2024/04/01 13:32:49;;;;;;;6.72;2.58;;;;;;;;;;5038225;28;20578;-64
2024/04/01 13:35:18;;;;;;;7.68;2.80;;;;;;;;;;5034906;28;20447;-65
2024/04/01 13:38:04;;;;;;;6.63;2.38;;;;;;;;;;5037759;28;20059;-68
2024/04/01 13:40:33;;;;;;;;;;;;;;;;;;5037806;28;20667;-67
2024/04/01 13:43:16;;;;;;;6.13;2.55;;;;;;;;;;5039897;28;19924;-73
2024/04/01 13:45:52;;;;;;;3.20;2.22;;;;;;;;;;5037912;28;20025;-71
2024/04/01 13:48:18;;;;;;;;;;;;;;;;;;5039232;28;20558;-71
2024/04/01 13:50:50;;;;;;;5.72;2.70;;;;;;;;;;5036034;28;19912;-71
2024/04/01 13:53:34;;;;;;;4.78;3.17;;;;;;;;;;5054941;28;20025;-65
2024/04/01 13:56:09;;;;;;;6.15;3.45;;;;;;;;;;5032385;28;20503;-73
2024/04/01 13:58:35;;;;;;;;;;;;;;;;;;5031930;28;20025;-69
2024/04/01 14:01:01;;;;;;;6.35;3.45;;;;;;;;;;5037413;28;19939;-67
2024/04/01 14:03:33;;;;;;;4.75;3.00;;;;;;;;;;5031559;28;20433;-65
2024/04/01 14:06:24;;;;;;;6.57;3.30;;;;;;;;;;5034228;28;20132;-71
2024/04/01 14:08:53;;;;;;;6.05;3.67;;;;;;;;;;5034189;28;20534;-64
2024/04/01 14:11:38;;;;;;;5.47;2.80;;;;;;;;;;5037286;28;20506;-64
2024/04/01 14:14:04;;;;;;;6.93;2.70;;;;;;;;;;5031807;28;20294;-64
2024/04/01 14:16:35;;;;;;;6.10;3.40;;;;;;;;;;5035950;28;20343;-64
2024/04/01 14:19:10;;;;;;;5.55;3.38;;;;;;;;;;5032808;28;20131;-63
2024/04/01 14:21:37;;;;;;;5.00;2.58;;;;;;;;;;5034699;28;20021;-64
2024/04/01 14:24:11;;;;;;;6.53;2.88;;;;;;;;;;5034200;28;20391;-67
2024/04/01 14:26:37;;;;;;;7.10;2.78;;;;;;;;;;5035856;28;20037;-64
2024/04/01 14:29:04;;;;;;;3.50;1.90;;;;;;;;;;5037248;28;20049;-62
2024/04/01 14:31:30;;;;;;;8.43;2.60;;;;;;;;;;5032835;28;20053;-63
2024/04/01 14:33:56;;;;;;;3.25;2.08;;;;;;;;;;5034266;28;20026;-63
2024/04/01 14:36:23;;;;;;;2.88;2.00;;;;;;;;;;5032348;28;20419;-65
2024/04/01 14:38:50;;;;;;;2.50;1.90;;;;;;;;;;5034173;28;20033;-66
2024/04/01 14:41:16;;;;;;;4.07;2.70;;;;;;;;;;5034779;28;20029;-67
2024/04/01 14:43:42;;;;;;;2.22;1.90;;;;;;;;;;5057209;28;20037;-68
2024/04/01 14:46:08;;;;;;;2.40;2.20;;;;;;;;;;5034479;28;20033;-67
2024/04/01 14:48:35;;;;;;;2.60;1.77;;;;;;;;;;5036189;28;20034;-64
2024/04/01 14:51:01;;;;;;;2.03;1.83;;;;;;;;;;5031127;28;20110;-65
2024/04/01 14:53:27;;;;;;;2.17;1.80;;;;;;;;;;5032810;28;20504;-63
2024/04/01 14:55:54;;;;;;;2.80;2.00;;;;;;;;;;5036813;28;20557;-64